Time;durP1;ratioP1;P1;durP2;ratioP2;P2;SDS_P1;SDS_P2;PMS_P1;PMS_P2;Temp;Humidity;BMP_temperature;BMP_pressure;BME280_temperature;BME280_humidity;BME280_pressure;Samples;Min_cycle;Max_cycle;Signal;HPM_P1;HPM_P2
2021/08/09 00:00:34;;;;;;;;;;;15.70;99.90;;;;;;1888842;75;20248;-71
2021/08/09 00:03:01;;;;;;;;;;;15.70;99.90;;;;;;1888222;75;20179;-72
2021/08/09 00:05:27;;;;;;;;;;;15.60;99.90;;;;;;1888799;76;20175;-72
2021/08/09 00:07:54;;;;;;;;;;;15.70;99.90;;;;;;1888111;75;20171;-71
2021/08/09 00:10:21;;;;;;;;;;;15.70;99.90;;;;;;1887859;75;20151;-71
2021/08/09 00:12:48;;;;;;;;;;;15.70;99.90;;;;;;1888640;76;20190;-72
2021/08/09 00:15:15;;;;;;;;;;;15.70;99.90;;;;;;1888902;75;20182;-71
2021/08/09 00:17:41;;;;;;;;;;;15.80;99.90;;;;;;1888867;76;20198;-72
2021/08/09 00:20:09;;;;;;;;;;;15.70;99.90;;;;;;1893355;75;20181;-71
2021/08/09 00:22:36;;;;;;;;;;;15.80;99.90;;;;;;1890610;74;20173;-72
2021/08/09 00:25:03;;;;;;;;;;;15.70;99.90;;;;;;1904552;75;20192;-72
2021/08/09 00:27:30;;;;;;;;;;;15.80;99.90;;;;;;1893639;75;20182;-72
2021/08/09 00:29:56;;;;;;;;;;;15.70;99.90;;;;;;1887499;75;20163;-72
2021/08/09 00:32:23;;;;;;;;;;;15.80;99.90;;;;;;1888057;75;20120;-72
2021/08/09 00:34:50;;;;;;;;;;;15.70;99.90;;;;;;1887708;75;20428;-72
2021/08/09 00:37:17;;;;;;;;;;;15.80;99.90;;;;;;1887499;75;20176;-72
2021/08/09 00:39:44;;;;;;;;;;;15.80;99.90;;;;;;1888222;75;20167;-72
2021/08/09 00:42:10;;;;;;;;;;;15.80;99.90;;;;;;1887103;75;20175;-72
2021/08/09 00:44:37;;;;;;;;;;;15.80;99.90;;;;;;1888582;75;20439;-72
2021/08/09 00:47:04;;;;;;;;;;;15.80;99.90;;;;;;1887768;75;20167;-72
2021/08/09 00:49:31;;;;;;;;;;;15.80;99.90;;;;;;1887721;75;20174;-72
2021/08/09 00:52:17;;;;;;;;;;;15.70;99.90;;;;;;1907737;75;20183;-72
2021/08/09 00:54:44;;;;;;;;;;;15.70;99.90;;;;;;1867293;75;20801;-72
2021/08/09 00:57:11;;;;;;;;;;;15.70;99.90;;;;;;1876784;76;20180;-72
2021/08/09 00:59:37;;;;;;;;;;;15.70;99.90;;;;;;1873985;75;20117;-72
2021/08/09 01:02:04;;;;;;;;;;;15.60;99.90;;;;;;1820069;77;20602;-72
2021/08/09 01:04:31;;;;;;;;;;;15.70;99.90;;;;;;1791264;78;20171;-72
2021/08/09 01:06:58;;;;;;;;;;;15.60;99.90;;;;;;1794277;78;20406;-72
2021/08/09 01:09:29;;;;;;;;;;;15.60;99.90;;;;;;1806595;79;20196;-72
2021/08/09 01:11:57;;;;;;;;;;;15.70;99.90;;;;;;1783793;78;20416;-72
2021/08/09 01:14:26;;;;;;;;;;;15.60;99.90;;;;;;1781824;78;20129;-71
2021/08/09 01:16:53;;;;;;;;;;;15.60;99.90;;;;;;1804231;78;20611;-70
2021/08/09 01:19:37;;;;;;;;;;;15.60;99.90;;;;;;1801481;78;20234;-71
2021/08/09 01:22:12;;;;;;;;;;;15.60;99.90;;;;;;1812988;78;20166;-71
2021/08/09 01:24:49;;;;;;;;;;;15.60;99.90;;;;;;1802444;78;20152;-71
2021/08/09 01:27:32;;;;;;;;;;;15.60;99.90;;;;;;1766491;79;20199;-71
2021/08/09 01:30:00;;;;;;;;;;;15.60;99.90;;;;;;1754146;79;20241;-72
2021/08/09 01:32:28;;;;;;;;;;;15.60;99.90;;;;;;1799942;78;20223;-72
2021/08/09 01:34:55;;;;;;;;;;;15.60;99.90;;;;;;1810793;79;20231;-71
2021/08/09 01:37:22;;;;;;;;;;;15.60;99.90;;;;;;1796194;79;20188;-72
2021/08/09 01:39:50;;;;;;;;;;;15.50;99.90;;;;;;1811568;79;20185;-72
2021/08/09 01:42:17;;;;;;;;;;;15.50;99.90;;;;;;1796703;79;20182;-72
2021/08/09 01:44:44;;;;;;;;;;;15.50;99.90;;;;;;1791343;78;20191;-72
2021/08/09 01:47:11;;;;;;;;;;;15.50;99.90;;;;;;1812579;78;20249;-72
2021/08/09 01:49:38;;;;;;;;;;;15.50;99.90;;;;;;1810112;78;20215;-72
2021/08/09 01:52:05;;;;;;;;;;;15.50;99.90;;;;;;1805561;78;20166;-71
2021/08/09 01:54:32;;;;;;;;;;;15.50;99.90;;;;;;1787111;79;20832;-71
2021/08/09 01:56:59;;;;;;;;;;;15.50;99.90;;;;;;1812045;79;20184;-72
2021/08/09 01:59:26;;;;;;;;;;;15.50;99.90;;;;;;1810367;78;20183;-71
2021/08/09 02:01:53;;;;;;;;;;;15.40;99.90;;;;;;1799228;78;20176;-71
2021/08/09 02:04:20;;;;;;;;;;;15.40;99.90;;;;;;1782726;80;20190;-71
2021/08/09 02:06:46;;;;;;;;;;;15.40;99.90;;;;;;1790354;79;20269;-72
2021/08/09 02:09:13;;;;;;;;;;;15.40;99.90;;;;;;1800843;79;20256;-71
2021/08/09 02:11:42;;;;;;;;;;;15.40;99.90;;;;;;1795784;78;20165;-72
2021/08/09 02:14:10;;;;;;;;;;;15.40;99.90;;;;;;1811771;78;20183;-71
2021/08/09 02:16:38;;;;;;;;;;;15.40;99.90;;;;;;1812884;78;20268;-72
2021/08/09 02:19:12;;;;;;;;;;;15.40;99.90;;;;;;1782665;80;20197;-72
2021/08/09 02:21:43;;;;;;;;;;;15.40;99.90;;;;;;1804455;78;20179;-72
2021/08/09 02:24:14;;;;;;;;;;;15.40;99.90;;;;;;1811181;79;20234;-72
2021/08/09 02:26:43;;;;;;;;;;;15.40;99.90;;;;;;1790594;79;20183;-72
2021/08/09 02:29:12;;;;;;;;;;;15.30;99.90;;;;;;1792844;79;20192;-72
2021/08/09 02:31:40;;;;;;;;;;;15.30;99.90;;;;;;1805367;79;20174;-72
2021/08/09 02:34:08;;;;;;;;;;;15.30;99.90;;;;;;1782536;80;20157;-72
2021/08/09 02:36:36;;;;;;;;;;;15.40;99.90;;;;;;1782673;80;20309;-72
2021/08/09 02:39:03;;;;;;;;;;;15.40;99.90;;;;;;1782693;79;20197;-72
2021/08/09 02:41:30;;;;;;;;;;;15.40;99.90;;;;;;1790867;79;20179;-71
2021/08/09 02:43:57;;;;;;;;;;;15.30;99.90;;;;;;1805752;79;20258;-72
2021/08/09 02:46:24;;;;;;;;;;;15.30;99.90;;;;;;1803518;78;20152;-71
2021/08/09 02:48:52;;;;;;;;;;;15.40;99.90;;;;;;1810734;78;20160;-72
2021/08/09 02:51:19;;;;;;;;;;;15.30;99.90;;;;;;1796155;79;20198;-72
2021/08/09 02:53:48;;;;;;;;;;;15.30;99.90;;;;;;1808461;78;20176;-72
2021/08/09 02:56:15;;;;;;;;;;;15.30;99.90;;;;;;1797593;78;20191;-72
2021/08/09 02:58:42;;;;;;;;;;;15.40;99.90;;;;;;1796134;78;20168;-72
2021/08/09 03:01:09;;;;;;;;;;;15.30;99.90;;;;;;1801532;78;20166;-72
2021/08/09 03:03:38;;;;;;;;;;;15.30;99.90;;;;;;1785334;78;20206;-72
2021/08/09 03:06:05;;;;;;;;;;;15.30;99.90;;;;;;1808576;78;20196;-72
2021/08/09 03:08:32;;;;;;;;;;;15.30;99.90;;;;;;1812436;79;20117;-72
2021/08/09 03:10:59;;;;;;;;;;;15.20;99.90;;;;;;1783732;80;20186;-72
2021/08/09 03:13:26;;;;;;;;;;;15.20;99.90;;;;;;1790651;78;20455;-72
2021/08/09 03:15:53;;;;;;;;;;;15.20;99.90;;;;;;1819046;78;20178;-72
2021/08/09 03:18:20;;;;;;;;;;;15.20;99.90;;;;;;1838519;78;20215;-72
2021/08/09 03:20:46;;;;;;;;;;;15.10;99.90;;;;;;1784922;77;20201;-72
2021/08/09 03:23:13;;;;;;;;;;;15.20;99.90;;;;;;1788806;78;20197;-71
2021/08/09 03:25:40;;;;;;;;;;;15.20;99.90;;;;;;1810115;79;20164;-72
2021/08/09 03:28:07;;;;;;;;;;;15.10;99.90;;;;;;1810742;79;20176;-72
2021/08/09 03:30:34;;;;;;;;;;;15.10;99.90;;;;;;1789842;78;20232;-72
2021/08/09 03:33:01;;;;;;;;;;;15.10;99.90;;;;;;1798658;79;20575;-71
2021/08/09 03:35:28;;;;;;;;;;;15.20;99.90;;;;;;1812409;79;20219;-72
2021/08/09 03:37:54;;;;;;;;;;;15.10;99.90;;;;;;1805874;79;20497;-71
2021/08/09 03:40:21;;;;;;;;;;;15.10;99.90;;;;;;1809243;78;20214;-71
2021/08/09 03:42:48;;;;;;;;;;;15.10;99.90;;;;;;1783675;79;20479;-71
2021/08/09 03:45:15;;;;;;;;;;;15.10;99.90;;;;;;1807107;78;20650;-72
2021/08/09 03:47:42;;;;;;;;;;;15.10;99.90;;;;;;1783146;80;20209;-72
2021/08/09 03:50:09;;;;;;;;;;;15.10;99.90;;;;;;1804605;79;20639;-71
2021/08/09 03:52:36;;;;;;;;;;;15.00;99.90;;;;;;1812354;79;20183;-71
2021/08/09 03:55:03;;;;;;;;;;;15.10;99.90;;;;;;1809901;79;20168;-71
2021/08/09 03:57:30;;;;;;;;;;;15.10;99.90;;;;;;1812360;79;20243;-71
2021/08/09 03:59:56;;;;;;;;;;;15.10;99.90;;;;;;1789634;78;20185;-71
2021/08/09 04:02:29;;;;;;;;;;;15.10;99.90;;;;;;1786071;79;20212;-72
2021/08/09 04:04:52;;;;;;;;;;;15.00;99.90;;;;;;1791521;78;20131;-71
2021/08/09 04:07:18;;;;;;;;;;;15.00;99.90;;;;;;1810704;78;20132;-72
2021/08/09 04:09:45;;;;;;;;;;;15.10;99.90;;;;;;1812746;79;20399;-72
2021/08/09 04:12:12;;;;;;;;;;;15.00;99.90;;;;;;1813122;79;20125;-72
2021/08/09 04:14:39;;;;;;;;;;;14.90;99.90;;;;;;1805761;78;20426;-71
2021/08/09 04:17:06;;;;;;;;;;;15.00;99.90;;;;;;1820303;79;20161;-72
2021/08/09 04:19:32;;;;;;;;;;;15.00;99.90;;;;;;1820178;79;20414;-72
2021/08/09 04:21:59;;;;;;;;;;;15.00;99.90;;;;;;1812932;79;20152;-71
2021/08/09 04:24:26;;;;;;;;;;;15.00;99.90;;;;;;1812960;79;20402;-71
2021/08/09 04:26:53;;;;;;;;;;;15.00;99.90;;;;;;1813177;79;20129;-72
2021/08/09 04:29:20;;;;;;;;;;;15.00;99.90;;;;;;1803780;78;20203;-72
2021/08/09 04:31:46;;;;;;;;;;;15.00;99.90;;;;;;1784370;79;20199;-71
2021/08/09 04:34:13;;;;;;;;;;;15.00;99.90;;;;;;1783758;80;20177;-71
2021/08/09 04:36:40;;;;;;;;;;;14.90;99.90;;;;;;1792415;78;20167;-72
2021/08/09 04:39:07;;;;;;;;;;;14.90;99.90;;;;;;1812944;79;20125;-72
2021/08/09 04:41:33;;;;;;;;;;;15.00;99.90;;;;;;1813166;79;20132;-71
2021/08/09 04:44:00;;;;;;;;;;;15.00;99.90;;;;;;1803111;78;20121;-72
2021/08/09 04:46:27;;;;;;;;;;;15.00;99.90;;;;;;1801273;78;20174;-72
2021/08/09 04:48:54;;;;;;;;;;;15.00;99.90;;;;;;1833887;78;20191;-72
2021/08/09 04:51:21;;;;;;;;;;;15.00;99.90;;;;;;1786728;79;20139;-72
2021/08/09 04:53:47;;;;;;;;;;;15.10;99.90;;;;;;1800548;79;20218;-71
2021/08/09 04:56:14;;;;;;;;;;;15.10;99.90;;;;;;1806349;79;20217;-72
2021/08/09 04:58:41;;;;;;;;;;;15.20;99.90;;;;;;1794734;78;20393;-72
2021/08/09 05:01:08;;;;;;;;;;;15.10;99.90;;;;;;1789194;78;20201;-71
2021/08/09 05:03:38;;;;;;;;;;;15.10;99.90;;;;;;1796917;78;20166;-72
2021/08/09 05:06:09;;;;;;;;;;;15.10;99.90;;;;;;1798874;78;20529;-72
2021/08/09 05:08:35;;;;;;;;;;;15.20;99.90;;;;;;1812654;79;20225;-71
2021/08/09 05:11:02;;;;;;;;;;;15.30;99.90;;;;;;1806114;78;20190;-72
2021/08/09 05:13:29;;;;;;;;;;;15.20;99.90;;;;;;1790223;78;20164;-72
2021/08/09 05:15:56;;;;;;;;;;;15.30;99.90;;;;;;1794934;78;20186;-71
2021/08/09 05:18:23;;;;;;;;;;;15.30;99.90;;;;;;1811664;78;20164;-72
2021/08/09 05:20:50;;;;;;;;;;;15.30;99.90;;;;;;1793295;79;20166;-71
2021/08/09 05:23:17;;;;;;;;;;;15.20;99.90;;;;;;1783211;80;20182;-72
2021/08/09 05:25:44;;;;;;;;;;;15.20;99.90;;;;;;1789081;78;20409;-72
2021/08/09 05:28:11;;;;;;;;;;;15.30;99.90;;;;;;1783355;80;20194;-72
2021/08/09 05:30:37;;;;;;;;;;;15.30;99.90;;;;;;1784895;79;20135;-72
2021/08/09 05:33:05;;;;;;;;;;;15.30;99.90;;;;;;1813153;78;20607;-71
2021/08/09 05:35:32;;;;;;;;;;;15.30;99.90;;;;;;1788538;79;20425;-72
2021/08/09 05:37:59;;;;;;;;;;;15.40;99.90;;;;;;1808227;78;20185;-71
2021/08/09 05:40:26;;;;;;;;;;;15.30;99.90;;;;;;1804019;79;20157;-71
2021/08/09 05:42:53;;;;;;;;;;;15.40;99.90;;;;;;1812428;79;20168;-72
2021/08/09 05:45:20;;;;;;;;;;;15.40;99.90;;;;;;1796028;78;20152;-72
2021/08/09 05:47:47;;;;;;;;;;;15.40;99.90;;;;;;1798957;78;20250;-72
2021/08/09 05:50:13;;;;;;;;;;;15.40;99.90;;;;;;1799476;78;20223;-72
2021/08/09 05:52:40;;;;;;;;;;;15.50;99.90;;;;;;1806311;78;20176;-72
2021/08/09 05:55:07;;;;;;;;;;;15.50;99.90;;;;;;1782649;80;20190;-72
2021/08/09 05:57:34;;;;;;;;;;;15.50;99.90;;;;;;1789558;78;20178;-72
2021/08/09 06:00:01;;;;;;;;;;;15.50;99.90;;;;;;1799763;78;20182;-72
2021/08/09 06:02:28;;;;;;;;;;;15.50;99.90;;;;;;1806581;78;20176;-71
2021/08/09 06:04:55;;;;;;;;;;;15.40;99.90;;;;;;1825049;78;20155;-71
2021/08/09 06:07:21;;;;;;;;;;;15.50;99.90;;;;;;1809534;78;20239;-71
2021/08/09 06:09:48;;;;;;;;;;;15.50;99.90;;;;;;1811864;79;20209;-71
2021/08/09 06:12:15;;;;;;;;;;;15.50;99.90;;;;;;1811926;79;20210;-71
2021/08/09 06:14:42;;;;;;;;;;;15.50;99.90;;;;;;1811948;79;20180;-72
2021/08/09 06:17:09;;;;;;;;;;;15.50;99.90;;;;;;1811955;79;20230;-71
2021/08/09 06:19:35;;;;;;;;;;;15.50;99.90;;;;;;1812046;79;20191;-74
2021/08/09 06:22:03;;;;;;;;;;;15.60;99.90;;;;;;1787891;79;20220;-72
2021/08/09 06:24:29;;;;;;;;;;;15.60;99.90;;;;;;1809412;78;20174;-73
2021/08/09 06:26:56;;;;;;;;;;;15.60;99.90;;;;;;1811979;79;20180;-73
2021/08/09 06:29:23;;;;;;;;;;;15.70;99.90;;;;;;1805197;78;20174;-73
2021/08/09 06:31:50;;;;;;;;;;;15.70;99.90;;;;;;1791539;78;20187;-72
2021/08/09 06:34:17;;;;;;;;;;;15.70;99.90;;;;;;1815005;78;20174;-72
2021/08/09 06:36:43;;;;;;;;;;;15.70;99.90;;;;;;1803695;78;20260;-71
2021/08/09 06:39:12;;;;;;;;;;;15.70;99.90;;;;;;1836227;78;20130;-73
2021/08/09 06:41:39;;;;;;;;;;;15.80;99.90;;;;;;1837441;78;20489;-73
2021/08/09 06:44:06;;;;;;;;;;;15.70;99.90;;;;;;1789951;79;20182;-72
2021/08/09 06:46:32;;;;;;;;;;;15.90;99.90;;;;;;1790156;79;20130;-73
2021/08/09 06:48:59;;;;;;;;;;;15.90;99.90;;;;;;1823872;78;20249;-73
2021/08/09 06:51:26;;;;;;;;;;;15.90;99.90;;;;;;1842127;78;20174;-72
2021/08/09 06:53:53;;;;;;;;;;;15.80;99.90;;;;;;1813337;78;20398;-73
2021/08/09 06:56:20;;;;;;;;;;;15.80;99.90;;;;;;1800155;78;20182;-74
2021/08/09 06:58:46;;;;;;;;;;;15.90;99.90;;;;;;1799046;78;20498;-73
2021/08/09 07:01:13;;;;;;;;;;;16.00;99.90;;;;;;1829182;77;20121;-73
2021/08/09 07:03:43;;;;;;;;;;;15.90;99.90;;;;;;1827003;77;20212;-73
2021/08/09 07:06:10;;;;;;;;;;;16.00;99.90;;;;;;1793460;79;20239;-73
2021/08/09 07:08:37;;;;;;;;;;;16.10;99.90;;;;;;1809918;78;20181;-72
2021/08/09 07:11:04;;;;;;;;;;;16.10;99.90;;;;;;1811857;78;20164;-72
2021/08/09 07:13:30;;;;;;;;;;;16.20;99.90;;;;;;1812378;79;20230;-72
2021/08/09 07:15:57;;;;;;;;;;;16.10;99.90;;;;;;1812899;79;20167;-72
2021/08/09 07:18:24;;;;;;;;;;;16.20;99.90;;;;;;1791514;78;20194;-72
2021/08/09 07:20:51;;;;;;;;;;;16.30;99.90;;;;;;1783406;80;20190;-72
2021/08/09 07:23:18;;;;;;;;;;;16.30;99.90;;;;;;1783301;79;20132;-72
2021/08/09 07:25:44;;;;;;;;;;;16.30;99.90;;;;;;1811185;79;20202;-72
2021/08/09 07:28:11;;;;;;;;;;;16.40;99.90;;;;;;1812660;79;20134;-71
2021/08/09 07:30:38;;;;;;;;;;;16.40;99.90;;;;;;1795497;79;20229;-72
2021/08/09 07:33:05;;;;;;;;;;;16.40;99.90;;;;;;1777575;79;20215;-72
2021/08/09 07:35:32;;;;;;;;;;;16.40;99.90;;;;;;1796753;78;20124;-71
2021/08/09 07:37:59;;;;;;;;;;;16.40;99.90;;;;;;1811984;78;20203;-71
2021/08/09 07:40:25;;;;;;;;;;;16.50;99.90;;;;;;1811298;77;20176;-71
2021/08/09 07:42:52;;;;;;;;;;;16.40;99.90;;;;;;1799410;78;20160;-71
2021/08/09 07:45:20;;;;;;;;;;;16.50;99.90;;;;;;1809625;78;20223;-72
2021/08/09 07:47:52;;;;;;;;;;;16.50;99.90;;;;;;1810000;79;20184;-72
2021/08/09 07:50:15;;;;;;;;;;;16.60;99.90;;;;;;1791857;78;20180;-71
2021/08/09 07:52:42;;;;;;;;;;;16.60;99.90;;;;;;1796520;79;20201;-72
2021/08/09 07:55:09;;;;;;;;;;;16.70;99.90;;;;;;1812128;79;20187;-72
2021/08/09 07:57:35;;;;;;;;;;;16.70;99.90;;;;;;1812238;78;20176;-71
2021/08/09 08:00:03;;;;;;;;;;;16.70;99.90;;;;;;1799198;79;20451;-71
2021/08/09 08:02:29;;;;;;;;;;;16.70;99.90;;;;;;1797022;79;20578;-70
2021/08/09 08:04:56;;;;;;;;;;;16.80;99.90;;;;;;1798357;79;20285;-70
2021/08/09 08:07:23;;;;;;;;;;;16.70;99.90;;;;;;1802812;78;20232;-70
2021/08/09 08:09:50;;;;;;;;;;;16.80;99.90;;;;;;1795852;79;20211;-70
2021/08/09 08:12:17;;;;;;;;;;;16.90;99.90;;;;;;1793164;78;20172;-70
2021/08/09 08:14:44;;;;;;;;;;;16.90;99.90;;;;;;1797769;79;20189;-70
2021/08/09 08:17:10;;;;;;;;;;;16.90;99.90;;;;;;1801347;79;20216;-70
2021/08/09 08:19:37;;;;;;;;;;;17.00;99.90;;;;;;1786185;79;20180;-70
2021/08/09 08:22:04;;;;;;;;;;;17.00;99.90;;;;;;1798974;78;20179;-71
2021/08/09 08:24:31;;;;;;;;;;;17.20;99.90;;;;;;1799946;79;20274;-70
2021/08/09 08:26:58;;;;;;;;;;;17.20;99.90;;;;;;1801898;78;20186;-71
2021/08/09 08:29:24;;;;;;;;;;;17.20;99.90;;;;;;1800047;78;20263;-69
2021/08/09 08:31:51;;;;;;;;;;;17.20;99.90;;;;;;1797803;79;20210;-70
2021/08/09 08:34:18;;;;;;;;;;;17.30;99.90;;;;;;1791026;78;20212;-70
2021/08/09 08:36:45;;;;;;;;;;;17.40;99.90;;;;;;1804476;78;20227;-70
2021/08/09 08:39:12;;;;;;;;;;;17.40;99.90;;;;;;1802906;78;20180;-73
2021/08/09 08:41:43;;;;;;;;;;;17.50;99.90;;;;;;1805347;78;20469;-70
2021/08/09 08:44:10;;;;;;;;;;;17.60;99.90;;;;;;1796357;79;20172;-70
2021/08/09 08:46:38;;;;;;;;;;;17.60;99.90;;;;;;1806875;78;20592;-70
2021/08/09 08:49:06;;;;;;;;;;;17.70;99.90;;;;;;1805769;79;20231;-71
2021/08/09 08:51:34;;;;;;;;;;;17.80;99.90;;;;;;1795627;79;20222;-71
2021/08/09 08:54:03;;;;;;;;;;;17.80;99.90;;;;;;1799927;78;20236;-70
2021/08/09 08:56:29;;;;;;;;;;;17.80;99.90;;;;;;1799799;79;20228;-71
2021/08/09 08:58:56;;;;;;;;;;;17.80;99.90;;;;;;1811997;78;20180;-71
2021/08/09 09:01:34;;;;;;;;;;;17.90;99.90;;;;;;1797041;78;20129;-71
2021/08/09 09:04:02;;;;;;;;;;;18.00;99.90;;;;;;1831103;78;20201;-72
2021/08/09 09:06:29;;;;;;;;;;;18.00;99.90;;;;;;1802968;78;20214;-71
2021/08/09 09:08:56;;;;;;;;;;;18.10;99.90;;;;;;1800896;78;20129;-70
2021/08/09 09:11:24;;;;;;;;;;;18.00;99.90;;;;;;1793256;79;20211;-72
2021/08/09 09:13:55;;;;;;;;;;;18.10;99.90;;;;;;1800262;78;20262;-71
2021/08/09 09:16:22;;;;;;;;;;;18.20;99.90;;;;;;1800634;79;20790;-70
2021/08/09 09:18:52;;;;;;;;;;;18.30;99.90;;;;;;1800949;78;20187;-70
2021/08/09 09:21:26;;;;;;;;;;;18.30;99.90;;;;;;1801996;78;20262;-71
2021/08/09 09:23:54;;;;;;;;;;;18.30;99.90;;;;;;1804161;78;20222;-70
2021/08/09 09:26:22;;;;;;;;;;;18.40;99.90;;;;;;1801151;78;20164;-71
2021/08/09 09:28:50;;;;;;;;;;;18.30;99.90;;;;;;1796872;79;20223;-71
2021/08/09 09:31:18;;;;;;;;;;;18.30;99.90;;;;;;1802235;78;20570;-71
2021/08/09 09:33:46;;;;;;;;;;;18.20;99.90;;;;;;1790909;79;20194;-71
2021/08/09 09:36:13;;;;;;;;;;;18.20;99.90;;;;;;1785613;79;20212;-70
2021/08/09 09:38:41;;;;;;;;;;;18.20;99.90;;;;;;1794775;78;20559;-72
2021/08/09 09:41:07;;;;;;;;;;;18.10;99.90;;;;;;1801478;78;20448;-70
2021/08/09 09:43:41;;;;;;;;;;;18.20;99.90;;;;;;1800050;78;20197;-71
2021/08/09 09:46:09;;;;;;;;;;;18.20;99.90;;;;;;1798190;79;20242;-71
2021/08/09 09:48:37;;;;;;;;;;;18.20;99.90;;;;;;1799061;79;20259;-70
2021/08/09 09:51:11;;;;;;;;;;;18.20;99.90;;;;;;1802479;78;20180;-70
2021/08/09 09:53:38;;;;;;;;;;;18.30;99.90;;;;;;1802101;78;20149;-71
2021/08/09 09:56:05;;;;;;;;;;;18.20;99.90;;;;;;1796213;78;20198;-71
2021/08/09 09:58:33;;;;;;;;;;;18.30;99.90;;;;;;1794209;78;20132;-71
2021/08/09 10:01:00;;;;;;;;;;;18.30;99.90;;;;;;1804074;78;20139;-70
2021/08/09 10:03:27;;;;;;;;;;;18.20;99.90;;;;;;1798164;78;20160;-71
2021/08/09 10:05:54;;;;;;;;;;;18.20;99.90;;;;;;1789948;79;20228;-70
2021/08/09 10:08:23;;;;;;;;;;;18.20;99.90;;;;;;1808320;78;20247;-71
2021/08/09 10:10:51;;;;;;;;;;;18.30;99.90;;;;;;1802552;78;20202;-71
2021/08/09 10:13:19;;;;;;;;;;;18.50;99.90;;;;;;1802244;79;20532;-71
2021/08/09 10:15:51;;;;;;;;;;;18.70;99.90;;;;;;1796608;79;20137;-72
2021/08/09 10:18:19;;;;;;;;;;;18.90;99.90;;;;;;1798664;78;20481;-71
2021/08/09 10:20:46;;;;;;;;;;;19.10;99.90;;;;;;1790889;79;20203;-71
2021/08/09 10:23:13;;;;;;;;;;;19.20;99.90;;;;;;1791765;79;20547;-70
2021/08/09 10:25:51;;;;;;;;;;;19.30;99.90;;;;;;1798279;78;20233;-71
2021/08/09 10:28:18;;;;;;;;;;;19.40;99.90;;;;;;1791476;79;20215;-71
2021/08/09 10:30:45;;;;;;;;;;;19.30;99.90;;;;;;1790462;79;20675;-71
2021/08/09 10:33:12;;;;;;;;;;;19.10;99.90;;;;;;1795081;78;20260;-73
2021/08/09 10:35:51;;;;;;;;;;;19.10;99.90;;;;;;1794715;79;20473;-71
2021/08/09 10:38:19;;;;;;;;;;;19.00;99.90;;;;;;1798886;78;20247;-71
2021/08/09 10:40:47;;;;;;;;;;;18.80;99.90;;;;;;1796528;78;20229;-71
2021/08/09 10:43:14;;;;;;;;;;;18.80;99.90;;;;;;1803558;78;20188;-72
2021/08/09 10:45:48;;;;;;;;;;;18.80;99.90;;;;;;1795399;78;20170;-71
2021/08/09 10:48:11;;;;;;;;;;;18.70;99.90;;;;;;1789376;79;20193;-70
2021/08/09 10:50:41;;;;;;;;;;;18.70;99.90;;;;;;1790657;79;20291;-70
2021/08/09 10:53:28;;;;;;;;;;;18.80;99.90;;;;;;1793309;79;20302;-70
2021/08/09 10:55:59;;;;;;;;;;;18.80;99.90;;;;;;1805546;79;20117;-71
2021/08/09 10:58:33;;;;;;;;;;;18.80;99.90;;;;;;1791780;78;20199;-71
2021/08/09 11:01:00;;;;;;;;;;;18.90;99.90;;;;;;1776709;78;20512;-71
2021/08/09 11:03:27;;;;;;;;;;;18.90;99.90;;;;;;1796672;79;20549;-72
2021/08/09 11:05:53;;;;;;;;;;;18.90;99.90;;;;;;1789149;79;20180;-71
2021/08/09 11:08:22;;;;;;;;;;;18.90;99.90;;;;;;1802320;78;20472;-72
2021/08/09 11:10:56;;;;;;;;;;;18.90;99.90;;;;;;1800781;78;20176;-71
2021/08/09 11:13:23;;;;;;;;;;;19.00;99.90;;;;;;1800658;78;20467;-69
2021/08/09 11:15:54;;;;;;;;;;;19.20;99.90;;;;;;1791686;78;20811;-70
2021/08/09 11:18:21;;;;;;;;;;;19.40;99.90;;;;;;1795904;78;20198;-70
2021/08/09 11:20:47;;;;;;;;;;;19.50;99.90;;;;;;1795664;78;20202;-70
2021/08/09 11:23:15;;;;;;;;;;;19.70;99.90;;;;;;1790823;79;20282;-70
2021/08/09 11:25:49;;;;;;;;;;;19.90;99.90;;;;;;1795030;79;20231;-70
2021/08/09 11:28:18;;;;;;;;;;;19.80;99.90;;;;;;1808708;78;20239;-70
2021/08/09 11:30:49;;;;;;;;;;;19.90;99.90;;;;;;1810427;78;20243;-71
2021/08/09 11:33:24;;;;;;;;;;;19.90;99.90;;;;;;1807558;78;20203;-71
2021/08/09 11:35:51;;;;;;;;;;;20.00;99.90;;;;;;1799526;78;20560;-71
2021/08/09 11:38:18;;;;;;;;;;;20.10;99.90;;;;;;1808154;77;20233;-71
2021/08/09 11:40:52;;;;;;;;;;;20.10;99.90;;;;;;1811993;78;20167;-71
2021/08/09 11:43:24;;;;;;;;;;;20.00;99.90;;;;;;1808697;78;20227;-71
2021/08/09 11:45:51;;;;;;;;;;;20.00;99.90;;;;;;1799433;77;20247;-71
2021/08/09 11:48:19;;;;;;;;;;;20.10;99.90;;;;;;1788978;79;20222;-73
2021/08/09 11:50:46;;;;;;;;;;;20.30;99.90;;;;;;1798095;78;20168;-73
2021/08/09 11:53:14;;;;;;;;;;;20.30;99.90;;;;;;1796350;79;20232;-73
2021/08/09 11:55:41;;;;;;;;;;;20.30;99.90;;;;;;1790745;79;20148;-73
2021/08/09 11:58:08;;;;;;;;;;;20.10;99.90;;;;;;1795676;78;20203;-74
2021/08/09 12:00:38;;;;;;;;;;;20.10;99.90;;;;;;1793172;79;20153;-74
2021/08/09 12:03:13;;;;;;;;;;;20.00;99.90;;;;;;1804008;79;20223;-73
2021/08/09 12:05:40;;;;;;;;;;;19.90;99.90;;;;;;1786501;79;20165;-73
2021/08/09 12:08:07;;;;;;;;;;;19.90;99.90;;;;;;1794537;78;20353;-71
2021/08/09 12:10:34;;;;;;;;;;;19.80;99.90;;;;;;1805847;78;20521;-71
2021/08/09 12:13:02;;;;;;;;;;;19.80;99.90;;;;;;1801122;79;20207;-73
2021/08/09 12:15:29;;;;;;;;;;;19.80;99.90;;;;;;1800715;79;20215;-71
2021/08/09 12:18:08;;;;;;;;;;;20.00;99.90;;;;;;1800048;79;20175;-71
2021/08/09 12:20:36;;;;;;;;;;;20.10;99.90;;;;;;1806653;79;20172;-71
2021/08/09 12:23:03;;;;;;;;;;;20.00;99.90;;;;;;1804976;79;20128;-71
2021/08/09 12:25:37;;;;;;;;;;;20.00;99.90;;;;;;1800970;78;20164;-71
2021/08/09 12:28:05;;;;;;;;;;;20.00;99.90;;;;;;1799745;78;20156;-71
2021/08/09 12:30:51;;;;;;;;;;;20.00;99.90;;;;;;1801610;78;21132;-72
2021/08/09 12:33:18;;;;;;;;;;;20.00;99.90;;;;;;1805881;78;20251;-73
2021/08/09 12:35:45;;;;;;;;;;;19.80;99.90;;;;;;1799445;79;20185;-73
2021/08/09 12:38:13;;;;;;;;;;;19.70;99.90;;;;;;1805909;78;20282;-71
2021/08/09 12:40:41;;;;;;;;;;;19.70;99.90;;;;;;1803097;78;20192;-71
2021/08/09 12:43:12;;;;;;;;;;;19.90;99.90;;;;;;1810164;78;20238;-70
2021/08/09 12:45:40;;;;;;;;;;;19.90;99.90;;;;;;1807347;79;20153;-70
2021/08/09 12:48:07;;;;;;;;;;;19.90;99.90;;;;;;1803846;78;20242;-70
2021/08/09 12:50:35;;;;;;;;;;;19.90;99.90;;;;;;1797794;79;20235;-70
2021/08/09 12:53:02;;;;;;;;;;;19.80;99.90;;;;;;1800062;79;20224;-70
2021/08/09 12:55:30;;;;;;;;;;;19.80;99.90;;;;;;1796139;79;20175;-69
2021/08/09 12:57:58;;;;;;;;;;;19.90;99.90;;;;;;1804277;78;20219;-70
2021/08/09 13:00:25;;;;;;;;;;;20.00;99.90;;;;;;1800845;78;20159;-71
2021/08/09 13:02:52;;;;;;;;;;;20.10;99.90;;;;;;1804206;78;20185;-70
2021/08/09 13:05:19;;;;;;;;;;;20.00;99.90;;;;;;1800832;79;20176;-70
2021/08/09 13:07:46;;;;;;;;;;;20.10;99.90;;;;;;1808890;78;20252;-70
2021/08/09 13:10:13;;;;;;;;;;;20.30;99.90;;;;;;1798968;78;20224;-70
2021/08/09 13:12:40;;;;;;;;;;;20.50;99.90;;;;;;1796932;79;20126;-70
2021/08/09 13:15:07;;;;;;;;;;;20.60;99.90;;;;;;1787069;79;20204;-69
2021/08/09 13:17:38;;;;;;;;;;;20.50;99.90;;;;;;1803336;79;20237;-70
2021/08/09 13:20:05;;;;;;;;;;;20.70;99.90;;;;;;1798282;78;20179;-71
2021/08/09 13:22:32;;;;;;;;;;;20.90;99.90;;;;;;1797465;78;20251;-70
2021/08/09 13:25:03;;;;;;;;;;;21.10;99.90;;;;;;1797443;79;20337;-70
2021/08/09 13:27:29;;;;;;;;;;;21.30;99.90;;;;;;1783906;79;20212;-70
2021/08/09 13:29:57;;;;;;;;;;;21.40;99.90;;;;;;1793693;78;20275;-70
2021/08/09 13:32:24;;;;;;;;;;;21.40;99.90;;;;;;1800824;79;20543;-70
2021/08/09 13:34:51;;;;;;;;;;;21.50;99.90;;;;;;1787606;78;20369;-71
2021/08/09 13:37:17;;;;;;;;;;;21.60;99.90;;;;;;1794800;78;20482;-70
2021/08/09 13:39:44;;;;;;;;;;;21.50;99.90;;;;;;1801572;78;20181;-71
2021/08/09 13:42:11;;;;;;;;;;;21.50;99.90;;;;;;1794272;79;20643;-70
2021/08/09 13:44:38;;;;;;;;;;;21.50;99.90;;;;;;1794359;79;20165;-70
2021/08/09 13:47:05;;;;;;;;;;;21.40;99.90;;;;;;1789985;79;20623;-71
2021/08/09 13:49:31;;;;;;;;;;;21.30;99.90;;;;;;1800914;78;20230;-70
2021/08/09 13:51:58;;;;;;;;;;;21.10;99.90;;;;;;1795458;79;20310;-71
2021/08/09 13:54:25;;;;;;;;;;;20.80;99.90;;;;;;1797786;78;20510;-70
2021/08/09 13:56:52;;;;;;;;;;;20.80;99.90;;;;;;1801203;78;20218;-70
2021/08/09 13:59:19;;;;;;;;;;;20.80;99.90;;;;;;1795467;78;20449;-70
2021/08/09 14:01:45;;;;;;;;;;;21.00;99.90;;;;;;1794912;79;20157;-70
2021/08/09 14:04:12;;;;;;;;;;;21.10;99.90;;;;;;1797701;79;20465;-70
2021/08/09 14:06:39;;;;;;;;;;;21.00;99.90;;;;;;1799828;78;20294;-72
2021/08/09 14:09:06;;;;;;;;;;;21.20;99.90;;;;;;1796385;79;20282;-72
2021/08/09 14:11:33;;;;;;;;;;;21.50;99.90;;;;;;1796335;78;20680;-72
2021/08/09 14:13:59;;;;;;;;;;;21.90;99.90;;;;;;1793970;79;20189;-73
2021/08/09 14:16:26;;;;;;;;;;;22.10;99.90;;;;;;1794032;78;20193;-72
2021/08/09 14:18:53;;;;;;;;;;;22.10;99.90;;;;;;1791213;79;20176;-72